sensor_id;sensor_type;location;lat;lon;timestamp;pressure;altitude;pressure_sealevel;temperature;humidity
50226;BME280;36113;50.742;6.432;2022-12-15T00:01:23;143322.22;;;-7.02;100.00
50226;BME280;36113;50.742;6.432;2022-12-15T00:04:07;143304.94;;;-7.09;100.00
50226;BME280;36113;50.742;6.432;2022-12-15T00:06:51;143317.31;;;-7.04;100.00
50226;BME280;36113;50.742;6.432;2022-12-15T00:09:35;143309.88;;;-7.07;100.00
50226;BME280;36113;50.742;6.432;2022-12-15T00:12:19;143275.34;;;-7.21;100.00
50226;BME280;36113;50.742;6.432;2022-12-15T00:15:03;143297.53;;;-7.12;100.00
50226;BME280;36113;50.742;6.432;2022-12-15T00:17:47;143283.97;;;-7.18;100.00
50226;BME280;36113;50.742;6.432;2022-12-15T00:20:31;143288.91;;;-7.16;100.00
50226;BME280;36113;50.742;6.432;2022-12-15T00:23:15;143254.34;;;-7.30;100.00
50226;BME280;36113;50.742;6.432;2022-12-15T00:25:59;143244.44;;;-7.34;100.00
50226;BME280;36113;50.742;6.432;2022-12-15T00:28:43;143243.22;;;-7.35;100.00
50226;BME280;36113;50.742;6.432;2022-12-15T00:31:27;143225.97;;;-7.42;100.00
50226;BME280;36113;50.742;6.432;2022-12-15T00:34:11;143250.66;;;-7.31;100.00
50226;BME280;36113;50.742;6.432;2022-12-15T00:36:55;143222.25;;;-7.43;100.00
50226;BME280;36113;50.742;6.432;2022-12-15T00:39:40;143225.97;;;-7.42;100.00
50226;BME280;36113;50.742;6.432;2022-12-15T00:42:06;143242.00;;;-7.35;100.00
50226;BME280;36113;50.742;6.432;2022-12-15T00:44:32;143213.63;;;-7.47;100.00
50226;BME280;36113;50.742;6.432;2022-12-15T00:46:57;143216.09;;;-7.46;100.00
50226;BME280;36113;50.742;6.432;2022-12-15T00:49:27;143208.69;;;-7.49;100.00
50226;BME280;36113;50.742;6.432;2022-12-15T00:52:13;143182.78;;;-7.60;100.00
50226;BME280;36113;50.742;6.432;2022-12-15T00:54:57;143200.06;;;-7.52;100.00
50226;BME280;36113;50.742;6.432;2022-12-15T00:57:41;143156.84;;;-7.70;100.00
50226;BME280;36113;50.742;6.432;2022-12-15T01:00:26;143143.28;;;-7.76;100.00
50226;BME280;36113;50.742;6.432;2022-12-15T01:03:18;143202.50;;;-7.51;100.00
50226;BME280;36113;50.742;6.432;2022-12-15T01:06:09;143133.44;;;-7.80;100.00
50226;BME280;36113;50.742;6.432;2022-12-15T01:08:53;143182.78;;;-7.60;100.00
50226;BME280;36113;50.742;6.432;2022-12-15T01:11:37;143207.47;;;-7.49;100.00
50226;BME280;36113;50.742;6.432;2022-12-15T01:14:21;143140.81;;;-7.77;100.00
50226;BME280;36113;50.742;6.432;2022-12-15T01:17:06;143186.44;;;-7.58;100.00
50226;BME280;36113;50.742;6.432;2022-12-15T01:19:50;143174.13;;;-7.63;100.00
50226;BME280;36113;50.742;6.432;2022-12-15T01:22:35;143145.78;;;-7.75;100.00
50226;BME280;36113;50.742;6.432;2022-12-15T01:25:00;143133.44;;;-7.80;100.00
50226;BME280;36113;50.742;6.432;2022-12-15T01:27:26;143127.25;;;-7.83;100.00
50226;BME280;36113;50.742;6.432;2022-12-15T01:29:51;143101.34;;;-7.94;100.00
50226;BME280;36113;50.742;6.432;2022-12-15T01:32:16;143103.78;;;-7.93;100.00
50226;BME280;36113;50.742;6.432;2022-12-15T01:34:42;143111.19;;;-7.89;100.00
50226;BME280;36113;50.742;6.432;2022-12-15T01:37:07;143108.75;;;-7.90;100.00
50226;BME280;36113;50.742;6.432;2022-12-15T01:39:32;143130.94;;;-7.81;100.00
50226;BME280;36113;50.742;6.432;2022-12-15T01:42:18;143075.47;;;-8.04;100.00
50226;BME280;36113;50.742;6.432;2022-12-15T01:44:47;143121.09;;;-7.85;100.00
50226;BME280;36113;50.742;6.432;2022-12-15T01:47:13;143060.63;;;-8.11;100.00
50226;BME280;36113;50.742;6.432;2022-12-15T01:49:39;143113.69;;;-7.88;100.00
50226;BME280;36113;50.742;6.432;2022-12-15T01:52:06;143121.09;;;-7.85;100.00
50226;BME280;36113;50.742;6.432;2022-12-15T01:54:49;143124.75;;;-7.84;100.00
50226;BME280;36113;50.742;6.432;2022-12-15T01:57:20;143114.91;;;-7.88;100.00
50226;BME280;36113;50.742;6.432;2022-12-15T01:59:50;143101.34;;;-7.94;100.00
50226;BME280;36113;50.742;6.432;2022-12-15T02:02:18;143077.91;;;-8.03;100.00
50226;BME280;36113;50.742;6.432;2022-12-15T02:04:46;143065.56;;;-8.08;100.00
50226;BME280;36113;50.742;6.432;2022-12-15T02:07:16;143082.81;;;-8.01;100.00
50226;BME280;36113;50.742;6.432;2022-12-15T02:09:42;143071.75;;;-8.06;100.00
50226;BME280;36113;50.742;6.432;2022-12-15T02:12:39;143019.94;;;-8.27;100.00
50226;BME280;36113;50.742;6.432;2022-12-15T02:15:16;143074.19;;;-8.05;100.00
50226;BME280;36113;50.742;6.432;2022-12-15T02:23:57;143043.38;;;-8.18;100.00
50226;BME280;36113;50.742;6.432;2022-12-15T02:32:25;143058.16;;;-8.12;100.00
50226;BME280;36113;50.742;6.432;2022-12-15T02:35:02;143013.78;;;-8.30;100.00
50226;BME280;36113;50.742;6.432;2022-12-15T02:37:32;143061.84;;;-8.10;100.00
50226;BME280;36113;50.742;6.432;2022-12-15T02:39:58;143064.34;;;-8.09;100.00
50226;BME280;36113;50.742;6.432;2022-12-15T02:42:25;143050.78;;;-8.15;100.00
50226;BME280;36113;50.742;6.432;2022-12-15T02:44:57;143096.41;;;-7.96;100.00
50226;BME280;36113;50.742;6.432;2022-12-15T02:47:36;143092.72;;;-7.97;100.00
50226;BME280;36113;50.742;6.432;2022-12-15T03:00:56;143038.47;;;-8.20;100.00
50226;BME280;36113;50.742;6.432;2022-12-15T03:03:25;143037.19;;;-8.20;100.00
50226;BME280;36113;50.742;6.432;2022-12-15T03:05:53;143001.47;;;-8.35;100.00
50226;BME280;36113;50.742;6.432;2022-12-15T03:08:20;143008.81;;;-8.32;100.00
50226;BME280;36113;50.742;6.432;2022-12-15T03:10:50;142994.03;;;-8.38;100.00
50226;BME280;36113;50.742;6.432;2022-12-15T03:13:16;143007.59;;;-8.33;100.00
50226;BME280;36113;50.742;6.432;2022-12-15T03:15:42;142960.81;;;-8.52;100.00
50226;BME280;36113;50.742;6.432;2022-12-15T03:18:07;143021.16;;;-8.27;100.00
50226;BME280;36113;50.742;6.432;2022-12-15T03:20:32;143018.72;;;-8.28;100.00
50226;BME280;36113;50.742;6.432;2022-12-15T03:23:00;143023.63;;;-8.26;100.00
50226;BME280;36113;50.742;6.432;2022-12-15T03:25:26;142949.69;;;-8.57;100.00
50226;BME280;36113;50.742;6.432;2022-12-15T03:27:51;143018.72;;;-8.28;100.00
50226;BME280;36113;50.742;6.432;2022-12-15T03:30:17;143034.75;;;-8.21;100.00
50226;BME280;36113;50.742;6.432;2022-12-15T03:32:42;143002.69;;;-8.35;100.00
50226;BME280;36113;50.742;6.432;2022-12-15T03:35:07;143085.31;;;-8.00;100.00
50226;BME280;36113;50.742;6.432;2022-12-15T03:37:33;143054.44;;;-8.13;100.00
50226;BME280;36113;50.742;6.432;2022-12-15T03:39:58;143055.72;;;-8.13;100.00
50226;BME280;36113;50.742;6.432;2022-12-15T03:42:23;143097.66;;;-7.95;100.00
50226;BME280;36113;50.742;6.432;2022-12-15T03:45:08;143081.59;;;-8.02;100.00
50226;BME280;36113;50.742;6.432;2022-12-15T03:47:33;143034.75;;;-8.21;100.00
50226;BME280;36113;50.742;6.432;2022-12-15T03:49:58;143086.53;;;-8.00;100.00
50226;BME280;36113;50.742;6.432;2022-12-15T03:52:24;143080.38;;;-8.02;100.00
50226;BME280;36113;50.742;6.432;2022-12-15T03:54:49;143077.91;;;-8.03;100.00
50226;BME280;36113;50.742;6.432;2022-12-15T03:57:14;143011.31;;;-8.31;100.00
50226;BME280;36113;50.742;6.432;2022-12-15T03:59:39;143047.09;;;-8.16;100.00
50226;BME280;36113;50.742;6.432;2022-12-15T04:02:05;143035.97;;;-8.21;100.00
50226;BME280;36113;50.742;6.432;2022-12-15T04:04:30;143059.41;;;-8.11;100.00
50226;BME280;36113;50.742;6.432;2022-12-15T04:06:55;143012.53;;;-8.31;100.00
50226;BME280;36113;50.742;6.432;2022-12-15T04:09:21;143048.31;;;-8.16;100.00
50226;BME280;36113;50.742;6.432;2022-12-15T04:11:46;143040.91;;;-8.19;100.00
50226;BME280;36113;50.742;6.432;2022-12-15T04:14:11;142981.75;;;-8.43;100.00
50226;BME280;36113;50.742;6.432;2022-12-15T04:16:37;143048.31;;;-8.16;100.00
50226;BME280;36113;50.742;6.432;2022-12-15T04:19:02;143031.03;;;-8.23;100.00
50226;BME280;36113;50.742;6.432;2022-12-15T04:21:46;143063.13;;;-8.09;100.00
50226;BME280;36113;50.742;6.432;2022-12-15T04:24:11;143066.78;;;-8.08;100.00
50226;BME280;36113;50.742;6.432;2022-12-15T04:26:55;143066.78;;;-8.08;100.00
50226;BME280;36113;50.742;6.432;2022-12-15T04:29:39;143068.03;;;-8.07;100.00
50226;BME280;36113;50.742;6.432;2022-12-15T04:32:23;143006.38;;;-8.33;100.00
50226;BME280;36113;50.742;6.432;2022-12-15T04:35:08;143049.53;;;-8.15;100.00
50226;BME280;36113;50.742;6.432;2022-12-15T04:37:53;143038.47;;;-8.20;100.00
50226;BME280;36113;50.742;6.432;2022-12-15T04:40:37;143017.44;;;-8.29;100.00
50226;BME280;36113;50.742;6.432;2022-12-15T04:43:20;143066.78;;;-8.08;100.00
50226;BME280;36113;50.742;6.432;2022-12-15T04:46:04;143065.56;;;-8.08;100.00
50226;BME280;36113;50.742;6.432;2022-12-15T04:48:48;143105.06;;;-7.92;100.00
50226;BME280;36113;50.742;6.432;2022-12-15T04:51:33;143086.53;;;-8.00;100.00
50226;BME280;36113;50.742;6.432;2022-12-15T04:54:16;143089.00;;;-7.99;100.00
50226;BME280;36113;50.742;6.432;2022-12-15T04:57:00;143015.00;;;-8.30;100.00
50226;BME280;36113;50.742;6.432;2022-12-15T04:59:44;143056.94;;;-8.12;100.00
50226;BME280;36113;50.742;6.432;2022-12-15T05:02:28;143039.66;;;-8.19;100.00
50226;BME280;36113;50.742;6.432;2022-12-15T05:05:12;143017.44;;;-8.29;100.00
50226;BME280;36113;50.742;6.432;2022-12-15T05:07:57;143054.44;;;-8.13;100.00
50226;BME280;36113;50.742;6.432;2022-12-15T05:10:41;143056.94;;;-8.12;100.00
50226;BME280;36113;50.742;6.432;2022-12-15T05:13:24;143065.56;;;-8.08;100.00
50226;BME280;36113;50.742;6.432;2022-12-15T05:16:08;143071.75;;;-8.06;100.00
50226;BME280;36113;50.742;6.432;2022-12-15T05:18:52;143054.44;;;-8.13;100.00
50226;BME280;36113;50.742;6.432;2022-12-15T05:21:36;143076.69;;;-8.04;100.00
50226;BME280;36113;50.742;6.432;2022-12-15T05:24:20;143058.16;;;-8.12;100.00
50226;BME280;36113;50.742;6.432;2022-12-15T05:27:04;143026.13;;;-8.25;100.00
50226;BME280;36113;50.742;6.432;2022-12-15T05:29:48;143019.94;;;-8.27;100.00
50226;BME280;36113;50.742;6.432;2022-12-15T05:32:32;143068.03;;;-8.07;100.00
50226;BME280;36113;50.742;6.432;2022-12-15T05:34:57;143086.53;;;-8.00;100.00
50226;BME280;36113;50.742;6.432;2022-12-15T05:37:23;143103.78;;;-7.93;100.00
50226;BME280;36113;50.742;6.432;2022-12-15T05:39:48;143128.47;;;-7.82;100.00
50226;BME280;36113;50.742;6.432;2022-12-15T05:42:13;143160.56;;;-7.69;100.00
50226;BME280;36113;50.742;6.432;2022-12-15T05:44:39;143147.00;;;-7.75;100.00
50226;BME280;36113;50.742;6.432;2022-12-15T05:47:04;143156.84;;;-7.70;100.00
50226;BME280;36113;50.742;6.432;2022-12-15T05:49:30;143190.16;;;-7.57;100.00
50226;BME280;36113;50.742;6.432;2022-12-15T05:51:55;143176.59;;;-7.62;100.00
50226;BME280;36113;50.742;6.432;2022-12-15T05:54:21;143234.59;;;-7.38;100.00
50226;BME280;36113;50.742;6.432;2022-12-15T05:56:47;143238.31;;;-7.37;100.00
50226;BME280;36113;50.742;6.432;2022-12-15T05:59:15;143237.09;;;-7.37;100.00
50226;BME280;36113;50.742;6.432;2022-12-15T06:01:40;143237.09;;;-7.37;100.00
50226;BME280;36113;50.742;6.432;2022-12-15T06:04:06;143256.78;;;-7.29;100.00
50226;BME280;36113;50.742;6.432;2022-12-15T06:06:31;143264.22;;;-7.26;100.00
50226;BME280;36113;50.742;6.432;2022-12-15T06:08:57;143245.72;;;-7.33;100.00
50226;BME280;36113;50.742;6.432;2022-12-15T06:11:22;143223.47;;;-7.43;100.00
50226;BME280;36113;50.742;6.432;2022-12-15T06:13:51;143214.84;;;-7.46;100.00
50226;BME280;36113;50.742;6.432;2022-12-15T06:16:21;143227.19;;;-7.41;100.00
50226;BME280;36113;50.742;6.432;2022-12-15T06:18:49;143211.13;;;-7.48;100.00
50226;BME280;36113;50.742;6.432;2022-12-15T06:21:18;143193.88;;;-7.55;100.00
50226;BME280;36113;50.742;6.432;2022-12-15T06:23:44;143126.03;;;-7.83;100.00
50226;BME280;36113;50.742;6.432;2022-12-15T06:28:35;143160.56;;;-7.69;100.00
50226;BME280;36113;50.742;6.432;2022-12-15T06:31:02;143160.56;;;-7.69;100.00
50226;BME280;36113;50.742;6.432;2022-12-15T06:33:29;143144.50;;;-7.76;100.00
50226;BME280;36113;50.742;6.432;2022-12-15T06:35:55;143128.47;;;-7.82;100.00
50226;BME280;36113;50.742;6.432;2022-12-15T06:38:20;143066.78;;;-8.08;100.00
50226;BME280;36113;50.742;6.432;2022-12-15T06:40:54;143107.50;;;-7.91;100.00
50226;BME280;36113;50.742;6.432;2022-12-15T06:43:19;143048.31;;;-8.16;100.00
50226;BME280;36113;50.742;6.432;2022-12-15T06:45:47;143069.25;;;-8.07;100.00
50226;BME280;36113;50.742;6.432;2022-12-15T06:48:13;143023.63;;;-8.26;100.00
50226;BME280;36113;50.742;6.432;2022-12-15T06:50:38;143096.41;;;-7.96;100.00
50226;BME280;36113;50.742;6.432;2022-12-15T06:53:05;143101.34;;;-7.94;100.00
50226;BME280;36113;50.742;6.432;2022-12-15T06:55:30;143097.66;;;-7.95;100.00
50226;BME280;36113;50.742;6.432;2022-12-15T06:57:55;143079.13;;;-8.03;100.00
50226;BME280;36113;50.742;6.432;2022-12-15T07:00:21;143018.72;;;-8.28;100.00
50226;BME280;36113;50.742;6.432;2022-12-15T07:02:46;143075.47;;;-8.04;100.00
50226;BME280;36113;50.742;6.432;2022-12-15T07:05:11;143085.31;;;-8.00;100.00
50226;BME280;36113;50.742;6.432;2022-12-15T07:07:36;143071.75;;;-8.06;100.00
50226;BME280;36113;50.742;6.432;2022-12-15T07:10:02;143063.13;;;-8.09;100.00
50226;BME280;36113;50.742;6.432;2022-12-15T07:12:28;143072.97;;;-8.05;100.00
50226;BME280;36113;50.742;6.432;2022-12-15T07:14:53;143074.19;;;-8.05;100.00
50226;BME280;36113;50.742;6.432;2022-12-15T07:17:19;143114.91;;;-7.88;100.00
50226;BME280;36113;50.742;6.432;2022-12-15T07:19:44;143103.78;;;-7.93;100.00
50226;BME280;36113;50.742;6.432;2022-12-15T07:22:09;143113.69;;;-7.88;100.00
50226;BME280;36113;50.742;6.432;2022-12-15T07:24:34;143093.94;;;-7.97;100.00
50226;BME280;36113;50.742;6.432;2022-12-15T07:27:00;143101.34;;;-7.94;100.00
50226;BME280;36113;50.742;6.432;2022-12-15T07:29:25;143148.22;;;-7.74;100.00
50226;BME280;36113;50.742;6.432;2022-12-15T07:31:51;143149.44;;;-7.74;100.00
50226;BME280;36113;50.742;6.432;2022-12-15T07:34:16;143105.06;;;-7.92;100.00
50226;BME280;36113;50.742;6.432;2022-12-15T07:36:41;143161.78;;;-7.68;100.00
50226;BME280;36113;50.742;6.432;2022-12-15T07:39:07;143161.78;;;-7.68;100.00
50226;BME280;36113;50.742;6.432;2022-12-15T07:41:32;143117.38;;;-7.87;100.00
50226;BME280;36113;50.742;6.432;2022-12-15T07:43:57;143153.13;;;-7.72;100.00
50226;BME280;36113;50.742;6.432;2022-12-15T07:46:23;143140.81;;;-7.77;100.00
50226;BME280;36113;50.742;6.432;2022-12-15T07:48:50;143130.94;;;-7.81;100.00
50226;BME280;36113;50.742;6.432;2022-12-15T07:51:16;143133.44;;;-7.80;100.00
50226;BME280;36113;50.742;6.432;2022-12-15T07:53:43;143164.25;;;-7.67;100.00
50226;BME280;36113;50.742;6.432;2022-12-15T07:56:08;143177.81;;;-7.62;100.00
50226;BME280;36113;50.742;6.432;2022-12-15T07:58:34;143174.13;;;-7.63;100.00
50226;BME280;36113;50.742;6.432;2022-12-15T08:01:02;143176.59;;;-7.62;100.00
50226;BME280;36113;50.742;6.432;2022-12-15T08:03:35;143182.78;;;-7.60;100.00
50226;BME280;36113;50.742;6.432;2022-12-15T08:08:30;143191.44;;;-7.56;100.00
50226;BME280;36113;50.742;6.432;2022-12-15T08:10:55;143217.31;;;-7.45;100.00
50226;BME280;36113;50.742;6.432;2022-12-15T08:13:21;143227.19;;;-7.41;100.00
50226;BME280;36113;50.742;6.432;2022-12-15T08:15:46;143204.97;;;-7.50;100.00
50226;BME280;36113;50.742;6.432;2022-12-15T08:18:11;143246.94;;;-7.33;100.00
50226;BME280;36113;50.742;6.432;2022-12-15T08:20:37;143254.34;;;-7.30;100.00
50226;BME280;36113;50.742;6.432;2022-12-15T08:23:02;143228.44;;;-7.41;100.00
50226;BME280;36113;50.742;6.432;2022-12-15T08:25:28;143286.47;;;-7.17;100.00
50226;BME280;36113;50.742;6.432;2022-12-15T08:27:54;143311.16;;;-7.06;100.00
50226;BME280;36113;50.742;6.432;2022-12-15T08:30:20;143313.59;;;-7.05;100.00
50226;BME280;36113;50.742;6.432;2022-12-15T08:32:46;143342.00;;;-6.93;100.00
50226;BME280;36113;50.742;6.432;2022-12-15T08:35:12;143332.13;;;-6.98;100.00
50226;BME280;36113;50.742;6.432;2022-12-15T08:37:37;143329.66;;;-6.99;100.00
50226;BME280;36113;50.742;6.432;2022-12-15T08:40:03;143424.72;;;-6.59;100.00
50226;BME280;36113;50.742;6.432;2022-12-15T08:42:35;143376.56;;;-6.79;100.00
50226;BME280;36113;50.742;6.432;2022-12-15T08:45:02;143446.94;;;-6.50;100.00
50226;BME280;36113;50.742;6.432;2022-12-15T08:47:27;143419.81;;;-6.61;100.00
50226;BME280;36113;50.742;6.432;2022-12-15T08:49:53;143469.22;;;-6.41;100.00
50226;BME280;36113;50.742;6.432;2022-12-15T08:52:20;143464.28;;;-6.43;100.00
50226;BME280;36113;50.742;6.432;2022-12-15T08:54:45;143506.28;;;-6.25;100.00
50226;BME280;36113;50.742;6.432;2022-12-15T08:57:11;143550.75;;;-6.07;100.00
50226;BME280;36113;50.742;6.432;2022-12-15T08:59:36;143561.84;;;-6.02;100.00
50226;BME280;36113;50.742;6.432;2022-12-15T09:02:01;143569.28;;;-5.99;100.00
50226;BME280;36113;50.742;6.432;2022-12-15T09:04:30;143575.47;;;-5.96;100.00
50226;BME280;36113;50.742;6.432;2022-12-15T09:06:55;143591.47;;;-5.90;100.00
50226;BME280;36113;50.742;6.432;2022-12-15T09:09:21;143614.97;;;-5.80;100.00
50226;BME280;36113;50.742;6.432;2022-12-15T09:11:47;143559.41;;;-6.03;100.00
50226;BME280;36113;50.742;6.432;2022-12-15T09:14:13;143574.22;;;-5.97;100.00
50226;BME280;36113;50.742;6.432;2022-12-15T09:16:38;143582.81;;;-5.93;100.00
50226;BME280;36113;50.742;6.432;2022-12-15T09:19:08;143584.06;;;-5.93;100.00
50226;BME280;36113;50.742;6.432;2022-12-15T09:21:33;143610.03;;;-5.82;100.00
50226;BME280;36113;50.742;6.432;2022-12-15T09:24:00;143685.41;;;-5.51;100.00
50226;BME280;36113;50.742;6.432;2022-12-15T09:26:30;143715.06;;;-5.38;100.00
50226;BME280;36113;50.742;6.432;2022-12-15T09:28:56;143723.72;;;-5.35;100.00
50226;BME280;36113;50.742;6.432;2022-12-15T09:31:27;143779.41;;;-5.12;100.00
50226;BME280;36113;50.742;6.432;2022-12-15T09:33:54;143780.63;;;-5.11;100.00
50226;BME280;36113;50.742;6.432;2022-12-15T09:36:21;143785.56;;;-5.09;100.00
50226;BME280;36113;50.742;6.432;2022-12-15T09:38:46;143867.22;;;-4.75;100.00
50226;BME280;36113;50.742;6.432;2022-12-15T09:43:39;143962.47;;;-4.36;100.00
50226;BME280;36113;50.742;6.432;2022-12-15T09:46:15;144014.50;;;-4.14;98.04
50226;BME280;36113;50.742;6.432;2022-12-15T09:48:45;144033.03;;;-4.06;98.67
50226;BME280;36113;50.742;6.432;2022-12-15T09:51:13;144019.44;;;-4.12;99.65
50226;BME280;36113;50.742;6.432;2022-12-15T09:53:40;144101.16;;;-3.78;95.06
50226;BME280;36113;50.742;6.432;2022-12-15T09:56:12;144090.00;;;-3.83;89.12
50226;BME280;36113;50.742;6.432;2022-12-15T09:58:47;144163.06;;;-3.52;87.74
50226;BME280;36113;50.742;6.432;2022-12-15T10:04:19;144184.13;;;-3.44;80.18
50226;BME280;36113;50.742;6.432;2022-12-15T10:07:03;144274.50;;;-3.06;74.06
50226;BME280;36113;50.742;6.432;2022-12-15T10:09:31;144355.06;;;-2.73;73.00
50226;BME280;36113;50.742;6.432;2022-12-15T10:12:09;144400.94;;;-2.54;68.32
50226;BME280;36113;50.742;6.432;2022-12-15T10:15:22;144460.41;;;-2.29;66.90
50226;BME280;36113;50.742;6.432;2022-12-15T10:17:49;144488.94;;;-2.17;66.89
50226;BME280;36113;50.742;6.432;2022-12-15T10:20:24;144519.97;;;-2.04;67.75
50226;BME280;36113;50.742;6.432;2022-12-15T10:22:50;144558.41;;;-1.89;70.72
50226;BME280;36113;50.742;6.432;2022-12-15T10:25:23;144554.66;;;-1.90;79.51
50226;BME280;36113;50.742;6.432;2022-12-15T10:28:11;144558.41;;;-1.89;81.20
50226;BME280;36113;50.742;6.432;2022-12-15T10:33:25;144485.22;;;-2.19;98.05
50226;BME280;36113;50.742;6.432;2022-12-15T10:35:53;144461.69;;;-2.29;100.00
50226;BME280;36113;50.742;6.432;2022-12-15T10:38:37;144486.44;;;-2.18;100.00
50226;BME280;36113;50.742;6.432;2022-12-15T10:41:10;144471.59;;;-2.24;100.00
50226;BME280;36113;50.742;6.432;2022-12-15T10:43:45;144471.59;;;-2.24;100.00
50226;BME280;36113;50.742;6.432;2022-12-15T10:46:18;144438.13;;;-2.38;100.00
50226;BME280;36113;50.742;6.432;2022-12-15T10:48:46;144404.66;;;-2.52;100.00
50226;BME280;36113;50.742;6.432;2022-12-15T10:56:23;144394.72;;;-2.56;100.00
50226;BME280;36113;50.742;6.432;2022-12-15T10:58:51;144398.44;;;-2.55;100.00
50226;BME280;36113;50.742;6.432;2022-12-15T11:01:28;144394.72;;;-2.56;100.00
50226;BME280;36113;50.742;6.432;2022-12-15T11:03:57;144356.31;;;-2.72;100.00
50226;BME280;36113;50.742;6.432;2022-12-15T11:06:28;144352.56;;;-2.74;100.00
50226;BME280;36113;50.742;6.432;2022-12-15T11:08:56;144324.06;;;-2.86;100.00
50226;BME280;36113;50.742;6.432;2022-12-15T11:14:11;144382.31;;;-2.61;98.56
50226;BME280;36113;50.742;6.432;2022-12-15T11:16:45;144400.94;;;-2.54;98.00
50226;BME280;36113;50.742;6.432;2022-12-15T11:19:15;144441.84;;;-2.37;98.24
50226;BME280;36113;50.742;6.432;2022-12-15T11:21:47;144449.28;;;-2.34;98.37
50226;BME280;36113;50.742;6.432;2022-12-15T11:24:33;144446.78;;;-2.35;98.80
50226;BME280;36113;50.742;6.432;2022-12-15T11:27:27;144469.09;;;-2.26;100.00
50226;BME280;36113;50.742;6.432;2022-12-15T11:30:14;144523.63;;;-2.03;100.00
50226;BME280;36113;50.742;6.432;2022-12-15T11:32:50;144573.25;;;-1.82;99.12
50226;BME280;36113;50.742;6.432;2022-12-15T11:35:22;144575.75;;;-1.81;99.44
50226;BME280;36113;50.742;6.432;2022-12-15T11:40:43;144639.00;;;-1.55;95.88
50226;BME280;36113;50.742;6.432;2022-12-15T11:46:19;144676.22;;;-1.40;94.79
50226;BME280;36113;50.742;6.432;2022-12-15T11:54:24;144689.91;;;-1.34;93.59
50226;BME280;36113;50.742;6.432;2022-12-15T12:10:32;144576.97;;;-1.81;95.99
50226;BME280;36113;50.742;6.432;2022-12-15T12:15:32;144604.28;;;-1.70;93.69
50226;BME280;36113;50.742;6.432;2022-12-15T12:18:06;144620.41;;;-1.63;92.50
50226;BME280;36113;50.742;6.432;2022-12-15T12:20:47;144629.09;;;-1.59;91.50
50226;BME280;36113;50.742;6.432;2022-12-15T12:23:21;144643.94;;;-1.53;91.96
50226;BME280;36113;50.742;6.432;2022-12-15T12:25:59;144621.63;;;-1.62;92.25
50226;BME280;36113;50.742;6.432;2022-12-15T12:28:31;144667.53;;;-1.43;92.49
50226;BME280;36113;50.742;6.432;2022-12-15T12:31:01;144617.91;;;-1.64;96.98
50226;BME280;36113;50.742;6.432;2022-12-15T12:33:40;144656.34;;;-1.48;99.29
50226;BME280;36113;50.742;6.432;2022-12-15T12:36:11;144647.69;;;-1.52;100.00
50226;BME280;36113;50.742;6.432;2022-12-15T12:38:44;144625.38;;;-1.61;100.00
50226;BME280;36113;50.742;6.432;2022-12-15T12:43:50;144609.22;;;-1.67;100.00
50226;BME280;36113;50.742;6.432;2022-12-15T12:46:23;144539.75;;;-1.96;100.00
50226;BME280;36113;50.742;6.432;2022-12-15T12:49:04;144612.97;;;-1.66;100.00
50226;BME280;36113;50.742;6.432;2022-12-15T12:51:39;144604.28;;;-1.70;100.00
50226;BME280;36113;50.742;6.432;2022-12-15T12:56:55;144609.22;;;-1.67;100.00
50226;BME280;36113;50.742;6.432;2022-12-15T13:01:56;144610.47;;;-1.67;100.00
50226;BME280;36113;50.742;6.432;2022-12-15T13:06:59;144574.53;;;-1.82;100.00
50226;BME280;36113;50.742;6.432;2022-12-15T13:09:38;144606.72;;;-1.68;100.00
50226;BME280;36113;50.742;6.432;2022-12-15T13:12:04;144531.09;;;-2.00;100.00
50226;BME280;36113;50.742;6.432;2022-12-15T13:14:35;144562.13;;;-1.87;100.00
50226;BME280;36113;50.742;6.432;2022-12-15T13:17:16;144536.03;;;-1.98;100.00
50226;BME280;36113;50.742;6.432;2022-12-15T13:22:33;144570.78;;;-1.83;100.00
50226;BME280;36113;50.742;6.432;2022-12-15T13:25:00;144575.75;;;-1.81;100.00
50226;BME280;36113;50.742;6.432;2022-12-15T13:27:36;144548.44;;;-1.93;100.00
50226;BME280;36113;50.742;6.432;2022-12-15T13:32:42;144526.13;;;-2.02;100.00
50226;BME280;36113;50.742;6.432;2022-12-15T13:37:53;144518.69;;;-2.05;100.00
50226;BME280;36113;50.742;6.432;2022-12-15T13:45:38;144497.63;;;-2.14;100.00
50226;BME280;36113;50.742;6.432;2022-12-15T13:48:23;144513.75;;;-2.07;100.00
50226;BME280;36113;50.742;6.432;2022-12-15T13:53:31;144496.38;;;-2.14;100.00
50226;BME280;36113;50.742;6.432;2022-12-15T13:58:43;144477.75;;;-2.22;100.00
50226;BME280;36113;50.742;6.432;2022-12-15T14:01:27;144451.75;;;-2.33;100.00
50226;BME280;36113;50.742;6.432;2022-12-15T14:04:12;144431.91;;;-2.41;100.00
50226;BME280;36113;50.742;6.432;2022-12-15T14:07:04;144412.09;;;-2.49;100.00
50226;BME280;36113;50.742;6.432;2022-12-15T14:09:36;144415.78;;;-2.48;100.00
50226;BME280;36113;50.742;6.432;2022-12-15T14:12:04;144404.66;;;-2.52;100.00
50226;BME280;36113;50.742;6.432;2022-12-15T14:14:34;144393.47;;;-2.57;100.00
50226;BME280;36113;50.742;6.432;2022-12-15T14:17:06;144400.94;;;-2.54;100.00
50226;BME280;36113;50.742;6.432;2022-12-15T14:19:43;144391.00;;;-2.58;100.00
50226;BME280;36113;50.742;6.432;2022-12-15T14:22:24;144294.34;;;-2.98;100.00
50226;BME280;36113;50.742;6.432;2022-12-15T14:24:51;144366.25;;;-2.68;100.00
50226;BME280;36113;50.742;6.432;2022-12-15T14:27:32;144356.31;;;-2.72;100.00
50226;BME280;36113;50.742;6.432;2022-12-15T14:30:25;144340.19;;;-2.79;100.00
50226;BME280;36113;50.742;6.432;2022-12-15T14:37:54;144272.06;;;-3.07;100.00
50226;BME280;36113;50.742;6.432;2022-12-15T14:40:21;144255.94;;;-3.14;100.00
50226;BME280;36113;50.742;6.432;2022-12-15T14:42:48;144247.28;;;-3.17;100.00
50226;BME280;36113;50.742;6.432;2022-12-15T14:45:19;144197.72;;;-3.38;100.00
50226;BME280;36113;50.742;6.432;2022-12-15T14:47:55;144228.69;;;-3.25;100.00
50226;BME280;36113;50.742;6.432;2022-12-15T14:50:22;144207.63;;;-3.34;100.00